Archival Weather

Chicago O'Hare International

Chicago, Illinois (KORD)

Report from: Monday, December 12, 2022 12:51 AM CST
Current time: Friday, June 21, 2024 3:05 AM CDT

Current weather – Weather history – Daily summaries
Weather forecast

Temperature3.3°C (37.9°F)
Wind chill1.9°C (35.5°F)
Dew point0.0°C (32.0°F)
Winds 3 kts (1.5 m/s, 3.5 mph) North (350°)
Visibility10 mi. (16.1 km)
Clouds Ceiling: Overcast 2,400 ft. (732 m)
Altimeter30.26 in.Hg (1025 mB)
Relative humidity79 %
Density altitude-1,736 ft. (-529 m)
Sea-level pressure102.5 kPa (1025 mB, 30.28 in.Hg)
Remarks System requires maintenance
Automated weather observing station with precipitation discriminator
Flight conditions Marginal Visual Meteorological Conditions
Raw dataKORD 120651Z 35003KT 10SM OVC024 03/00 A3026 RMK AO2 SLP253 T00330000 $
An error has occurred. This application may no longer respond until reloaded. Reload 🗙